Details From TNCM - St Maarten - Princess Juliana Intl
To GCGM - La Gomera
Flight Number -
Tags Generated
Created
Modified
Stats Distance 2,591 nm / 4,799 km
Max Altitude 0 ft / 0 m
Waypoints 3
Social Downloads 0
Likes 0
Share VATSIM

Download

Looking for another format? Having issues loading an existing format? Contact us
Advertisement - Login to hide

Notes

Generated

Route

TNCM GOMER GCGM

ID Type Via Altitude Latitude Longitude Leg Dist Tot Dist Heading (true) Name
O TNCM APT - 0 ft / 0 m 18.03937˚ -63.11961˚ - 0 nm - -
GOMER FIX - 0 ft / 0 m 28.00000˚ -17.33333˚ 2585 nm 2585 nm 68° / 87° -
O GCGM APT - 0 ft / 0 m 28.02859˚ -17.22214˚ 6 nm 2591 nm 74° / 74° -

Altitude Profile

Advertisement - Login to hide

Weather


0- 5 10 15 20 25 30 35+ Temperature / ° C

Clouds and Precipitation
Forecast for 2018-05-22 06:00 UTC. Updated 22 minutes ago

Ground ~20,000 ft ~40,000 ft Winds

TNCM

Details ICAO TNCM (SXM)
Name St Maarten - Princess Juliana Intl
Region Caribbean Netherlands, Aruba, Curaçao, Sint Maarten
Timezone Unknown (UTC+0.0)
Stats Elevation 12 ft / 4 m (AMSL)
Location 18.040889° -63.108974°
Runways 1
Magnetic Variation 14.337° W

METAR

TNCM 220500Z 08012KT 050V120 9999 SCT018 26/22 Q1016 A3001

Decode

TAF

TAF TNCM 212338Z 2200/2224 09008KT P6SM FEW018 SCT020 FM221200 10015KT P6SM VCSH SCT018 SCT030 FM222300 09010KT P6SM VCSH SCT018 SCT022 SCT035

Decode

Departure Runways

ID Width Length Bearing (true) Bearing (mag) Surface Threshold Offset Overrun Length
10 148 ft / 45 m 7,464 ft / 2,275 m 81.43° 95.77° Asphalt 0 ft / 0 m 151 ft / 46 m
28 148 ft / 45 m 7,464 ft / 2,275 m 261.44° 275.78° Asphalt 397 ft / 121 m 0 ft / 0 m

GCGM

Details ICAO GCGM (GMZ)
Name La Gomera
Region Canary Islands
Timezone Atlantic/Canary (UTC+1.0)
Stats Elevation 715 ft / 218 m (AMSL)
Location 28.029627° -17.214603°
Runways 1
Magnetic Variation 5.308° W

METAR

GCGM 220530Z AUTO 28004KT 240V310 9999 FEW017/// 17/14 Q1017 RMK R09/29003KT 260V330 ARP/30004KT 240V340

Decode

TAF

TAF GCGM 220200Z 2203/2303 VRB04KT 9999 FEW025 TX23/2214Z TN18/2205Z

Decode

Destination Runways

ID Width Length Bearing (true) Bearing (mag) Surface Threshold Offset Overrun Length
09 98 ft / 30 m 4,914 ft / 1,498 m 81.17° 86.48° Asphalt 0 ft / 0 m 0 ft / 0 m
27 98 ft / 30 m 4,914 ft / 1,498 m 261.18° 266.49° Asphalt 0 ft / 0 m 0 ft / 0 m